createdAt,value
2023-03-21T00:01:52.930Z,100233.72
2023-03-21T00:04:20.863Z,100227.63
2023-03-21T00:06:48.893Z,100219.91
2023-03-21T00:09:16.445Z,100225.06
2023-03-21T00:11:44.866Z,100217.34
2023-03-21T00:14:14.367Z,100223.31
2023-03-21T00:16:45.808Z,100218.09
2023-03-21T00:19:15.961Z,100218.81
2023-03-21T00:21:59.545Z,100209.38
2023-03-21T00:24:31.290Z,100217.81
2023-03-21T00:27:10.681Z,100211.75
2023-03-21T00:29:46.644Z,100213.34
2023-03-21T00:32:14.301Z,100210.75
2023-03-21T00:34:57.634Z,100209.03
2023-03-21T00:37:30.037Z,100203.91
2023-03-21T00:39:57.608Z,100197.88
2023-03-21T00:42:25.185Z,100192.75
2023-03-21T00:44:52.780Z,100192.75
2023-03-21T00:47:20.513Z,100188.31
2023-03-21T00:49:49.648Z,100186.59
2023-03-21T00:52:27.546Z,100184.09
2023-03-21T00:55:07.255Z,100179.81
2023-03-21T00:57:39.310Z,100184.09
2023-03-21T01:00:10.327Z,100182.31
2023-03-21T01:02:38.501Z,100182.16
2023-03-21T01:05:08.348Z,100176.09
2023-03-21T01:07:35.961Z,100171.78
2023-03-21T01:10:03.662Z,100176.91
2023-03-21T01:12:31.280Z,100173.41
2023-03-21T01:14:58.865Z,100174.28
2023-03-21T01:17:26.462Z,100171.59
2023-03-21T01:19:53.998Z,100174.06
2023-03-21T01:22:22.923Z,100171.41
2023-03-21T01:24:55.366Z,100169.66
2023-03-21T01:27:24.478Z,100169.66
2023-03-21T01:29:52.274Z,100170.38
2023-03-21T01:32:19.956Z,100165.13
2023-03-21T01:34:47.666Z,100159.09
2023-03-21T01:37:17.733Z,100162.38
2023-03-21T01:39:50.142Z,100161.47
2023-03-21T01:42:18.046Z,100153.69
2023-03-21T01:44:58.755Z,100157.97
2023-03-21T01:47:34.906Z,100157.16
2023-03-21T01:50:08.181Z,100152.00
2023-03-21T01:52:46.604Z,100153.75
2023-03-21T01:55:19.395Z,100154.63
2023-03-21T01:58:05.822Z,100159.75
2023-03-21T02:01:11.712Z,100157.97
2023-03-21T02:03:51.300Z,100151.13
2023-03-21T02:06:36.659Z,100147.63
2023-03-21T02:09:19.845Z,100139.97
2023-03-21T02:11:49.258Z,100142.38
2023-03-21T02:14:29.028Z,100143.06
2023-03-21T02:17:10.786Z,100135.88
2023-03-21T02:20:11.278Z,100133.31
2023-03-21T02:22:55.492Z,100125.59
2023-03-21T02:25:46.584Z,100130.75
2023-03-21T02:28:21.098Z,100130.66
2023-03-21T02:31:14.424Z,100125.41
2023-03-21T02:34:12.342Z,100118.53
2023-03-21T02:37:01.084Z,100125.41
2023-03-21T02:39:33.924Z,100119.38
2023-03-21T02:42:08.104Z,100120.19
2023-03-21T02:44:43.234Z,100118.34
2023-03-21T02:47:14.407Z,100126.81
2023-03-21T02:49:48.898Z,100125.03
2023-03-21T02:52:37.478Z,100122.41
2023-03-21T02:55:13.833Z,100130.16
2023-03-21T02:57:50.976Z,100121.63
2023-03-21T03:00:22.992Z,100121.63
2023-03-21T03:03:02.730Z,100114.63
2023-03-21T03:05:42.326Z,100121.53
2023-03-21T03:08:32.442Z,100113.75
2023-03-21T03:15:28.275Z,100095.72
2023-03-21T03:18:02.840Z,100104.28
2023-03-21T03:20:39.282Z,100101.66
2023-03-21T03:23:20.601Z,100094.84
2023-03-21T03:25:54.110Z,100094.78
2023-03-21T03:28:27.152Z,100098.13
2023-03-21T03:31:08.829Z,100100.56
2023-03-21T03:33:47.709Z,100097.13
2023-03-21T03:36:33.413Z,100103.16
2023-03-21T03:39:10.297Z,100105.72
2023-03-21T03:42:12.712Z,100100.50
2023-03-21T03:44:38.325Z,100092.78
2023-03-21T03:47:11.839Z,100098.63
2023-03-21T03:49:47.411Z,100092.69
2023-03-21T03:52:18.575Z,100097.81
2023-03-21T03:54:52.935Z,100096.94
2023-03-21T03:57:23.649Z,100094.22
2023-03-21T03:59:51.464Z,100093.31
2023-03-21T04:02:37.535Z,100089.03
2023-03-21T04:05:06.386Z,100099.22
2023-03-21T04:07:33.973Z,100100.88
2023-03-21T04:10:03.769Z,100095.75
2023-03-21T04:12:34.534Z,100088.06
2023-03-21T04:15:16.309Z,100092.19
2023-03-21T04:17:49.565Z,100092.88
2023-03-21T04:20:26.692Z,100090.22
2023-03-21T04:23:03.030Z,100090.06
2023-03-21T04:25:34.946Z,100091.66
2023-03-21T04:28:05.691Z,100090.75
2023-03-21T04:30:43.369Z,100094.13
2023-03-21T04:33:16.977Z,100095.66
2023-03-21T04:35:56.058Z,100092.94
2023-03-21T04:38:26.494Z,100077.41
2023-03-21T04:40:55.660Z,100088.31
2023-03-21T04:43:24.200Z,100085.56
2023-03-21T04:45:52.649Z,100094.03
2023-03-21T04:48:24.401Z,100087.09
2023-03-21T04:50:53.276Z,100089.59
2023-03-21T04:53:20.943Z,100085.34
2023-03-21T04:55:52.431Z,100086.13
2023-03-21T04:58:22.606Z,100086.13
2023-03-21T05:00:52.944Z,100094.50
2023-03-21T05:03:21.869Z,100085.88
2023-03-21T05:05:49.927Z,100078.09
2023-03-21T05:08:19.645Z,100082.19
2023-03-21T05:10:47.454Z,100085.56
2023-03-21T05:13:15.501Z,100083.88
2023-03-21T05:15:44.432Z,100084.63
2023-03-21T05:18:12.198Z,100082.94
2023-03-21T05:20:57.987Z,100078.56
2023-03-21T05:23:26.113Z,100081.00
2023-03-21T05:25:53.763Z,100077.47
2023-03-21T05:28:31.750Z,100083.34
2023-03-21T05:31:02.403Z,100081.63
2023-03-21T05:33:30.363Z,100074.75
2023-03-21T05:35:59.008Z,100073.09
2023-03-21T05:38:31.013Z,100071.44
2023-03-21T05:40:59.291Z,100072.28
2023-03-21T05:43:27.886Z,100076.66
2023-03-21T05:45:55.994Z,100081.50
2023-03-21T05:48:26.486Z,100074.63
2023-03-21T05:51:09.219Z,100081.38
2023-03-21T05:53:36.835Z,100084.66
2023-03-21T05:56:04.780Z,100083.78
2023-03-21T05:59:01.617Z,100078.47
2023-03-21T06:01:31.853Z,100073.31
2023-03-21T06:04:10.579Z,100077.56
2023-03-21T06:06:38.134Z,100083.44
2023-03-21T06:09:06.513Z,100082.69
2023-03-21T06:11:36.952Z,100085.94
2023-03-21T06:14:22.579Z,100085.06
2023-03-21T06:17:16.484Z,100087.69
2023-03-21T06:19:50.787Z,100082.69
2023-03-21T06:22:23.518Z,100085.34
2023-03-21T06:24:51.183Z,100086.28
2023-03-21T06:27:19.154Z,100083.13
2023-03-21T06:29:51.660Z,100092.75
2023-03-21T06:32:19.571Z,100092.09
2023-03-21T06:34:49.326Z,100095.81
2023-03-21T06:37:18.741Z,100099.31
2023-03-21T06:39:47.695Z,100097.16
2023-03-21T06:42:15.850Z,100103.56
2023-03-21T06:44:43.958Z,100098.69
2023-03-21T06:47:15.633Z,100097.25
2023-03-21T06:49:45.667Z,100099.13
2023-03-21T06:52:14.214Z,100092.34
2023-03-21T06:54:43.836Z,100091.78
2023-03-21T06:57:13.558Z,100091.34
2023-03-21T06:59:42.441Z,100087.34
2023-03-21T07:02:14.513Z,100081.56
2023-03-21T07:04:57.715Z,100085.59
2023-03-21T07:07:29.748Z,100089.38
2023-03-21T07:09:58.997Z,100083.59
2023-03-21T07:12:33.970Z,100084.72
2023-03-21T07:15:22.426Z,100086.00
2023-03-21T07:17:50.351Z,100091.44
2023-03-21T07:20:18.239Z,100094.19
2023-03-21T07:22:45.894Z,100080.59
2023-03-21T07:25:17.237Z,100086.09
2023-03-21T07:27:44.882Z,100081.34
2023-03-21T07:30:13.796Z,100084.16
2023-03-21T07:32:41.368Z,100083.19
2023-03-21T07:35:11.969Z,100080.16
2023-03-21T07:37:39.790Z,100080.56
2023-03-21T07:40:10.705Z,100077.59
2023-03-21T07:42:42.632Z,100073.88
2023-03-21T07:45:15.568Z,100064.00
2023-03-21T07:47:43.603Z,100068.75
2023-03-21T07:50:11.478Z,100071.69
2023-03-21T07:52:39.179Z,100066.69
2023-03-21T07:55:07.643Z,100080.69
2023-03-21T07:57:35.499Z,100071.53
2023-03-21T08:00:05.271Z,100070.94
2023-03-21T08:02:41.146Z,100080.44
2023-03-21T08:05:11.465Z,100075.09
2023-03-21T08:07:39.075Z,100067.59
2023-03-21T08:10:07.961Z,100077.09
2023-03-21T08:12:35.540Z,100076.53
2023-03-21T08:15:04.875Z,100075.09
2023-03-21T08:17:32.430Z,100076.25
2023-03-21T08:19:59.946Z,100076.47
2023-03-21T08:22:27.519Z,100074.97
2023-03-21T08:24:55.508Z,100077.06
2023-03-21T08:27:23.063Z,100078.09
2023-03-21T08:29:50.581Z,100070.13
2023-03-21T08:32:20.515Z,100068.69
2023-03-21T08:34:48.033Z,100065.34
2023-03-21T08:37:15.600Z,100070.88
2023-03-21T08:39:43.392Z,100066.78
2023-03-21T08:42:10.926Z,100071.31
2023-03-21T08:44:38.933Z,100071.44
2023-03-21T08:47:08.105Z,100072.25
2023-03-21T08:49:37.471Z,100069.72
2023-03-21T08:52:06.517Z,100064.72
2023-03-21T08:54:34.130Z,100063.16
2023-03-21T08:57:01.664Z,100068.41
2023-03-21T08:59:29.267Z,100070.06
2023-03-21T09:01:56.866Z,100061.44
2023-03-21T09:04:25.901Z,100058.13
2023-03-21T09:06:56.180Z,100060.84
2023-03-21T09:09:23.920Z,100060.94
2023-03-21T09:11:52.578Z,100054.09
2023-03-21T09:14:21.915Z,100057.66
2023-03-21T09:16:54.197Z,100058.59
2023-03-21T09:19:25.696Z,100059.53
2023-03-21T09:21:55.770Z,100052.69
2023-03-21T09:24:24.109Z,100058.75
2023-03-21T09:26:51.765Z,100062.22
2023-03-21T09:29:21.266Z,100058.75
2023-03-21T09:31:49.658Z,100051.88
2023-03-21T09:34:17.261Z,100051.91
2023-03-21T09:36:48.251Z,100058.88
2023-03-21T09:39:17.278Z,100061.50
2023-03-21T09:42:06.313Z,100052.81
2023-03-21T09:44:44.941Z,100058.09
2023-03-21T09:47:20.700Z,100058.16
2023-03-21T09:49:51.875Z,100060.72
2023-03-21T09:52:24.961Z,100057.22
2023-03-21T09:54:55.572Z,100058.81
2023-03-21T09:57:32.951Z,100060.50
2023-03-21T10:00:09.839Z,100063.09
2023-03-21T10:02:45.473Z,100055.34
2023-03-21T10:05:18.802Z,100060.56
2023-03-21T10:07:48.740Z,100069.22
2023-03-21T10:10:21.353Z,100065.81
2023-03-21T10:12:53.713Z,100060.66
2023-03-21T10:15:24.335Z,100065.91
2023-03-21T10:17:59.264Z,100065.03
2023-03-21T10:20:28.446Z,100058.97
2023-03-21T10:22:59.678Z,100055.50
2023-03-21T10:25:32.582Z,100055.44
2023-03-21T10:28:02.750Z,100057.09
2023-03-21T10:30:37.833Z,100051.97
2023-03-21T10:33:09.500Z,100050.22
2023-03-21T10:35:40.339Z,100050.25
2023-03-21T10:38:15.599Z,100046.72
2023-03-21T10:40:45.211Z,100047.63
2023-03-21T10:43:35.328Z,100039.00
2023-03-21T10:46:08.870Z,100045.06
2023-03-21T10:48:38.171Z,100038.00
2023-03-21T10:51:08.938Z,100029.25
2023-03-21T10:53:39.771Z,100026.72
2023-03-21T10:56:12.552Z,100019.78
2023-03-21T10:58:43.636Z,100028.47
2023-03-21T11:01:15.983Z,100031.09
2023-03-21T11:03:46.792Z,100025.88
2023-03-21T11:06:18.691Z,100022.47
2023-03-21T11:08:49.854Z,100025.09
2023-03-21T11:11:28.139Z,100025.06
2023-03-21T11:14:01.014Z,100020.72
2023-03-21T11:16:36.472Z,100024.13
2023-03-21T11:19:13.376Z,100026.81
2023-03-21T11:21:41.110Z,100013.91
2023-03-21T11:24:15.020Z,100010.50
2023-03-21T11:26:45.437Z,100020.97
2023-03-21T11:29:27.943Z,100017.50
2023-03-21T11:32:00.999Z,100007.06
2023-03-21T11:34:33.897Z,100003.56
2023-03-21T11:37:03.977Z,100003.56
2023-03-21T11:39:34.664Z,99995.75
2023-03-21T11:42:04.160Z,99988.94
2023-03-21T11:44:34.326Z,99983.75
2023-03-21T11:47:02.874Z,99982.78
2023-03-21T11:49:31.570Z,99979.97
2023-03-21T11:52:16.068Z,99982.63
2023-03-21T11:54:59.642Z,99984.09
2023-03-21T11:57:31.614Z,99984.47
2023-03-21T12:00:13.435Z,99973.66
2023-03-21T12:03:35.342Z,99969.97
2023-03-21T12:06:18.460Z,99966.25
2023-03-21T12:08:55.354Z,99954.50
2023-03-21T12:11:30.392Z,99949.69
2023-03-21T12:14:07.131Z,99943.16
2023-03-21T12:16:44.194Z,99937.44
2023-03-21T12:19:34.873Z,99931.63
2023-03-21T12:22:08.981Z,99929.81
2023-03-21T12:24:42.508Z,99932.75
2023-03-21T12:27:18.736Z,99939.13
2023-03-21T12:30:04.781Z,99928.63
2023-03-21T12:33:00.279Z,99923.63
2023-03-21T12:35:41.542Z,99923.81
2023-03-21T12:38:17.033Z,99918.69
2023-03-21T12:41:01.998Z,99909.34
2023-03-21T12:43:37.437Z,99910.56
2023-03-21T12:46:14.882Z,99900.47
2023-03-21T12:48:47.329Z,99896.59
2023-03-21T12:51:19.832Z,99897.09
2023-03-21T12:53:55.595Z,99885.94
2023-03-21T12:56:26.456Z,99890.53
2023-03-21T12:58:59.724Z,99895.53
2023-03-21T13:01:29.448Z,99888.91
2023-03-21T13:04:11.509Z,99881.75
2023-03-21T13:06:40.444Z,99873.75
2023-03-21T13:09:17.943Z,99882.69
2023-03-21T13:11:46.844Z,99874.56
2023-03-21T13:14:21.088Z,99872.66
2023-03-21T13:16:56.462Z,99872.50
2023-03-21T13:19:31.888Z,99870.78
2023-03-21T13:22:08.176Z,99870.53
2023-03-21T13:24:43.621Z,99868.97
2023-03-21T13:27:24.511Z,99873.94
2023-03-21T13:29:53.685Z,99863.09
2023-03-21T13:32:29.835Z,99856.81
2023-03-21T13:35:00.232Z,99857.34
2023-03-21T13:37:31.991Z,99842.44
2023-03-21T13:40:09.315Z,99854.13
2023-03-21T13:42:43.417Z,99845.34
2023-03-21T13:45:13.114Z,99846.63
2023-03-21T13:47:55.233Z,99841.47
2023-03-21T13:50:45.712Z,99833.72
2023-03-21T13:53:22.484Z,99838.22
2023-03-21T13:56:18.505Z,99828.63
2023-03-21T13:58:53.401Z,99827.66
2023-03-21T14:01:31.695Z,99827.06
2023-03-21T14:04:05.279Z,99822.31
2023-03-21T14:06:37.087Z,99834.00
2023-03-21T14:09:06.751Z,99813.69
2023-03-21T14:11:36.764Z,99812.72
2023-03-21T14:14:05.282Z,99808.69
2023-03-21T14:16:34.565Z,99816.72
2023-03-21T14:19:05.824Z,99809.03
2023-03-21T14:21:35.913Z,99816.13
2023-03-21T14:24:06.838Z,99809.38
2023-03-21T14:26:38.753Z,99797.47
2023-03-21T14:29:22.979Z,99804.41
2023-03-21T14:31:52.804Z,99799.31
2023-03-21T14:34:23.756Z,99801.16
2023-03-21T14:36:58.097Z,99800.69
2023-03-21T14:39:30.717Z,99796.75
2023-03-21T14:42:04.078Z,99805.97
2023-03-21T14:44:44.067Z,99803.75
2023-03-21T14:47:20.437Z,99803.88
2023-03-21T14:49:50.285Z,99797.13
2023-03-21T14:52:23.314Z,99794.56
2023-03-21T14:54:51.964Z,99790.28
2023-03-21T14:57:22.302Z,99790.13
2023-03-21T14:59:53.003Z,99797.16
2023-03-21T15:02:24.993Z,99783.31
2023-03-21T15:04:58.027Z,99791.19
2023-03-21T15:07:28.434Z,99796.41
2023-03-21T15:09:57.520Z,99794.69
2023-03-21T15:12:25.414Z,99793.00
2023-03-21T15:14:54.345Z,99791.22
2023-03-21T15:17:22.922Z,99786.00
2023-03-21T15:19:50.549Z,99784.28
2023-03-21T15:22:26.077Z,99788.59
2023-03-21T15:24:59.365Z,99788.66
2023-03-21T15:27:26.796Z,99782.63
2023-03-21T15:29:55.457Z,99781.88
2023-03-21T15:32:27.164Z,99782.72
2023-03-21T15:34:56.905Z,99784.47
2023-03-21T15:37:28.501Z,99776.69
2023-03-21T15:40:11.327Z,99774.94
2023-03-21T15:42:40.679Z,99768.00
2023-03-21T15:45:18.192Z,99773.22
2023-03-21T15:47:53.551Z,99775.84
2023-03-21T15:50:33.590Z,99774.97
2023-03-21T15:53:05.918Z,99777.56
2023-03-21T15:55:40.135Z,99767.22
2023-03-21T15:58:16.391Z,99768.09
2023-03-21T16:00:49.862Z,99761.19
2023-03-21T16:03:22.198Z,99746.47
2023-03-21T16:06:06.608Z,99752.53
2023-03-21T16:08:37.718Z,99749.06
2023-03-21T16:11:14.323Z,99743.00
2023-03-21T16:13:41.960Z,99749.06
2023-03-21T16:16:16.774Z,99746.47
2023-03-21T16:18:44.448Z,99742.13
2023-03-21T16:21:13.420Z,99735.22
2023-03-21T16:23:42.746Z,99731.75
2023-03-21T16:26:13.170Z,99738.66
2023-03-21T16:28:40.820Z,99736.09
2023-03-21T16:31:12.846Z,99730.91
2023-03-21T16:33:40.408Z,99730.94
2023-03-21T16:36:13.351Z,99732.66
2023-03-21T16:38:42.305Z,99735.25
2023-03-21T16:41:11.868Z,99743.88
2023-03-21T16:43:42.992Z,99743.91
2023-03-21T16:46:14.849Z,99744.78
2023-03-21T16:48:42.920Z,99735.25
2023-03-21T16:51:14.447Z,99737.00
2023-03-21T16:53:43.776Z,99735.25
2023-03-21T16:56:16.155Z,99737.84
2023-03-21T16:58:43.735Z,99737.84
2023-03-21T17:01:15.434Z,99737.00
2023-03-21T17:03:43.739Z,99728.34
2023-03-21T17:06:16.027Z,99729.19
2023-03-21T17:08:45.726Z,99742.19
2023-03-21T17:11:16.350Z,99750.84
2023-03-21T17:13:44.550Z,99754.28
2023-03-21T17:16:13.204Z,99762.94
2023-03-21T17:18:41.024Z,99760.34
2023-03-21T17:21:13.744Z,99768.09
2023-03-21T17:23:41.704Z,99771.53
2023-03-21T17:26:13.668Z,99767.22
2023-03-21T17:28:42.089Z,99764.63
2023-03-21T17:31:14.502Z,99758.53
2023-03-21T17:33:42.480Z,99760.28
2023-03-21T17:36:14.733Z,99752.50
2023-03-21T17:38:43.086Z,99755.06
2023-03-21T17:41:14.078Z,99751.59
2023-03-21T17:43:41.657Z,99752.47
2023-03-21T17:46:12.797Z,99744.72
2023-03-21T17:48:40.654Z,99751.59
2023-03-21T17:51:12.793Z,99750.72
2023-03-21T17:53:40.632Z,99747.19
2023-03-21T17:56:14.799Z,99754.09
2023-03-21T17:58:42.506Z,99750.63
2023-03-21T18:01:10.397Z,99757.50
2023-03-21T18:03:37.983Z,99756.63
2023-03-21T18:06:06.518Z,99761.78
2023-03-21T18:08:34.140Z,99757.47
2023-03-21T18:11:01.739Z,99761.78
2023-03-21T18:13:30.680Z,99759.19
2023-03-21T18:15:59.792Z,99757.41
2023-03-21T18:18:28.031Z,99766.03
2023-03-21T18:20:58.002Z,99767.75
2023-03-21T18:23:26.380Z,99762.53
2023-03-21T18:25:53.965Z,99766.78
2023-03-21T18:28:22.467Z,99762.44
2023-03-21T18:31:12.590Z,99763.25
2023-03-21T18:33:41.173Z,99760.59
2023-03-21T18:36:10.005Z,99767.50
2023-03-21T18:38:37.688Z,99776.06
2023-03-21T18:41:05.844Z,99786.41
2023-03-21T18:46:22.685Z,99783.78
2023-03-21T18:48:51.799Z,99789.78
2023-03-21T18:51:19.696Z,99780.25
2023-03-21T18:53:47.446Z,99787.97
2023-03-21T18:56:56.164Z,99793.97
2023-03-21T18:59:02.626Z,99793.91
2023-03-21T19:01:32.368Z,99793.91
2023-03-21T19:06:48.532Z,99786.09
2023-03-21T19:09:18.112Z,99786.88
2023-03-21T19:11:46.476Z,99794.53
2023-03-21T19:14:16.899Z,99801.38
2023-03-21T19:17:27.038Z,99799.59
2023-03-21T19:19:34.256Z,99794.38
2023-03-21T19:22:01.847Z,99791.75
2023-03-21T19:24:29.457Z,99792.59
2023-03-21T19:26:57.082Z,99802.88
2023-03-21T19:29:25.759Z,99804.56
2023-03-21T19:31:54.865Z,99794.13
2023-03-21T19:34:22.652Z,99788.94
2023-03-21T19:36:52.217Z,99792.28
2023-03-21T19:39:22.317Z,99790.56
2023-03-21T19:41:50.587Z,99799.16
2023-03-21T19:44:19.080Z,99797.38
2023-03-21T19:46:48.318Z,99795.59
2023-03-21T19:49:22.276Z,99796.38
2023-03-21T19:51:51.156Z,99797.19
2023-03-21T19:54:18.843Z,99800.56
2023-03-21T19:56:48.133Z,99798.84
2023-03-21T19:59:16.136Z,99793.59
2023-03-21T20:01:43.853Z,99791.81
2023-03-21T20:04:11.816Z,99795.25
2023-03-21T20:06:40.817Z,99806.44
2023-03-21T20:11:57.723Z,99797.00
2023-03-21T20:14:25.748Z,99794.38
2023-03-21T20:16:55.365Z,99800.34
2023-03-21T20:19:23.082Z,99800.22
2023-03-21T20:21:58.756Z,99807.16
2023-03-21T20:24:28.127Z,99808.16
2023-03-21T20:26:57.236Z,99814.13
2023-03-21T20:32:13.097Z,99815.63
2023-03-21T20:34:40.726Z,99815.47
2023-03-21T20:37:09.816Z,99824.84
2023-03-21T20:39:37.965Z,99825.63
2023-03-21T20:42:06.079Z,99828.91
2023-03-21T20:44:56.019Z,99828.81
2023-03-21T20:47:21.795Z,99823.66
2023-03-21T20:49:49.631Z,99823.56
2023-03-21T20:55:08.916Z,99823.22
2023-03-21T20:57:38.747Z,99822.13
2023-03-21T21:00:14.802Z,99823.59
2023-03-21T21:02:43.896Z,99818.25
2023-03-21T21:05:25.358Z,99822.44
2023-03-21T21:07:57.586Z,99816.22
2023-03-21T21:10:26.211Z,99825.56
2023-03-21T21:12:54.054Z,99828.91
2023-03-21T21:15:22.007Z,99840.84
2023-03-21T21:18:05.525Z,99842.53
2023-03-21T21:20:34.076Z,99838.16
2023-03-21T21:23:03.054Z,99835.50
2023-03-21T21:25:33.412Z,99833.53
2023-03-21T21:28:02.241Z,99830.75
2023-03-21T21:30:30.309Z,99836.63
2023-03-21T21:33:01.807Z,99831.34
2023-03-21T21:35:30.512Z,99823.44
2023-03-21T21:37:59.026Z,99832.78
2023-03-21T21:40:30.087Z,99822.31
2023-03-21T21:43:03.226Z,99823.75
2023-03-21T21:45:30.963Z,99819.16
2023-03-21T21:47:58.663Z,99819.84
2023-03-21T21:50:26.272Z,99830.75
2023-03-21T21:52:54.533Z,99824.59
2023-03-21T21:55:22.849Z,99820.94
2023-03-21T21:57:52.805Z,99825.13
2023-03-21T22:00:21.776Z,99821.50
2023-03-21T22:02:49.395Z,99823.03
2023-03-21T22:05:18.821Z,99810.94
2023-03-21T22:07:46.868Z,99816.84
2023-03-21T22:10:15.447Z,99812.47
2023-03-21T22:12:43.010Z,99810.63
2023-03-21T22:15:13.039Z,99808.84
2023-03-21T22:17:42.058Z,99808.75
2023-03-21T22:20:11.998Z,99814.63
2023-03-21T22:22:39.821Z,99808.47
2023-03-21T22:25:10.440Z,99811.88
2023-03-21T22:27:38.435Z,99817.78
2023-03-21T22:30:07.772Z,99816.00
2023-03-21T22:32:38.198Z,99814.94
2023-03-21T22:35:08.863Z,99813.91
2023-03-21T22:37:38.459Z,99819.72
2023-03-21T22:40:09.774Z,99815.31
2023-03-21T22:42:39.505Z,99818.44
2023-03-21T22:45:09.470Z,99819.22
2023-03-21T22:47:38.828Z,99823.31
2023-03-21T22:50:08.370Z,99822.31
2023-03-21T22:52:35.969Z,99825.66
2023-03-21T22:55:03.587Z,99827.25
2023-03-21T22:57:31.201Z,99821.13
2023-03-21T22:59:58.787Z,99820.94
2023-03-21T23:02:27.095Z,99820.66
2023-03-21T23:04:56.300Z,99821.47
2023-03-21T23:07:23.869Z,99813.56
2023-03-21T23:09:51.778Z,99816.91
2023-03-21T23:12:19.448Z,99812.50
2023-03-21T23:14:47.199Z,99815.00
2023-03-21T23:17:16.274Z,99811.41
2023-03-21T23:19:43.951Z,99813.13
2023-03-21T23:22:12.866Z,99815.53
2023-03-21T23:24:40.469Z,99813.66
2023-03-21T23:27:07.988Z,99810.78
2023-03-21T23:29:35.603Z,99811.50
2023-03-21T23:32:03.222Z,99806.25
2023-03-21T23:34:31.588Z,99808.75
2023-03-21T23:36:59.312Z,99813.69
2023-03-21T23:39:28.265Z,99804.28
2023-03-21T23:41:57.936Z,99803.25
2023-03-21T23:44:26.306Z,99815.88
2023-03-21T23:46:53.931Z,99820.03
2023-03-21T23:49:21.419Z,99818.22
2023-03-21T23:51:49.995Z,99813.09
2023-03-21T23:54:17.668Z,99813.97
2023-03-21T23:56:46.689Z,99804.53
2023-03-21T23:59:14.256Z,99795.06
